SKLO2: Skiatook Lake

Data processed at Tue May 21 2019 21:10


All information presented herein is the property of the government of the United States of America and may be revised or deleted at any time without prior notice.
Dissemination of this information without the expressed written consent of the Public Affairs Office, Tulsa District U.S. Army Corps of Engineers is strictly prohibited.
These data are gathered electronically and, as presented, have not undergone any form of quality control. These data are not guaranteed to be valid or correct.
Go to home page.
Go to station list.
Go to home page.

Upstream stations:

Downstream station:
Previous Day
Next Day
Current Day
    
SHEF ID:       SKLO2     Skiatook Lake
STATION TYPE:  RESERVOIR
Flood Pool:  Bottom =   714.00, Top =   729.00

               PRECIP  RIV-FLOW ELEVATION   STORAGE   TW-ELEV    INFLOW   RELEASE  AIR-TEMP  WIND-DIRWIND-SPEED REL-HUMID SOLAR-RAD   VOLTAGE  BAT-LOAD
                   in       cfs        ft     ac-ft        ft       cfs       cfs         F       deg       mph         %      W/m2      volt      volt
              Ccp-Rev  Rev-Regi   Ccp-Rev   Ccp-Rev   Ccp-Rev  Rev-Regi  Rev-Regi   Ccp-Rev   Ccp-Rev   Ccp-Rev   Ccp-Rev   Ccp-Rev   Ccp-Rev   Ccp-Rev
(US/Central)
05/21 00:00      0.00      ----    720.23    388953      ----     89597      5084     56.17     47.75     13.69    100.06      0.00     12.61     12.41
05/21 01:00      0.43      ----    720.73    394678      ----     74657      5743     57.58     30.15      5.96    100.05      0.00     12.58     12.33
05/21 02:00      0.28      ----    721.16    399637      ----     69048      5904     59.14     57.60     10.37    100.05      0.00     12.57     12.33
05/21 03:00      0.01      ----    721.58    404539      ----     64016      5827     60.44     68.71      8.76    100.05      0.00     12.56     12.33
05/21 04:00      0.00      ----    721.90    408273      ----     58599      5613     62.10     92.91      7.83     99.63      0.00     12.55     12.25
05/21 05:00      0.14      ----    722.30    413079      ----     62103      5218     63.10     89.94      7.63     98.12      0.00     12.54     12.25
05/21 06:00      0.01      ----    722.59    416597      ----     62686      4696     63.70     69.29      6.64     96.54      0.00     12.55     12.25
05/21 07:00      0.87      ----    723.12    423119      ----     67686      4151     62.56    330.85      8.64     99.08      0.00     12.54     12.25
05/21 08:00      0.18      ----    723.53    428412      ----     64624      3939     61.59     89.18      6.55    100.06      0.00     12.55     12.25
05/21 09:00      0.18      ----    723.99    434351      ----     69333      4158     61.56    123.47      7.92    100.05      0.00     12.54     12.25
05/21 10:00      0.03      ----    724.28    437983      ----     62317      4462     61.50     90.84      8.92    100.05     25.92     12.74     12.25
05/21 11:00      0.04      ----    724.72    443487      ----     59301      4469     62.37    125.19      9.53    100.03     39.62     12.84     12.41
05/21 12:00      0.01      ----    725.01    447116      ----     52490      4232     63.00    134.57      6.95     99.72     66.16     13.19     12.33
05/21 13:00      0.00      ----    725.33    451164      ----     51413      3832     64.11    155.60      8.86     98.29    152.79     13.58     12.97
05/21 14:00      0.00      ----    725.58    454327      ----     45113      3332     66.99    178.02     15.79     89.67    559.71     14.26     13.29
05/21 15:00      0.01      ----    725.84    457616      ----     44330      2813     69.89    189.46     20.59     74.08    938.67     13.51     13.29
05/21 16:00      0.00      ----    726.08    460673      ----     41592      2356     71.89    192.96     21.27     62.17    755.55     13.77     13.37
05/21 17:00      0.00      ----    726.35    464158      ----     40099      1984     73.35    202.59     23.17     44.65    788.66     14.24     13.44
05/21 18:00      0.00      ----    726.59    467257      ----     37114      1685     73.78    204.05     23.09     38.40    583.57     13.49     13.37
05/21 19:00      0.00      ----    726.80    469968      ----     35808      1468     73.85    193.06     17.65     39.89    347.19     13.64     13.29
05/21 20:00      0.00      ----    726.97    472163      ----     32528      1313     73.06    180.84     15.78     41.41    107.16     13.12     13.29
05/21 21:00      0.00      ----    727.17    474789      ----     32289      1212     71.74    177.28     16.29     41.81      1.14     12.79     12.81
05/21 22:00      ----      ----      ----      ----      ----      ----      ----      ----      ----      ----      ----      ----      ----      ----
05/21 23:00      ----      ----      ----      ----      ----      ----      ----      ----      ----      ----      ----      ----      ----      ----